AVA2824 SKCL-SKPS
Flight info
| Callsign | AVA2824 |
|---|---|
| Flight time | 0h 46m |
| Altitude | 22000 |
| Route | CLO1C ISOPA G675 MER |
| Aircraft | A320/M-SDE3FGHIRWY/LB1 |
Departure
| Time | 2026-04-27 00:24 |
|---|---|
| Airport | Alfonso Bonilla Aragon International Airport (SKCL) |
Arrival
| Time | 2026-04-27 01:10 |
|---|---|
| Airport | Antonio Nariño Airport (SKPS) |
| Time | Latitude | Longitude | Altitude | Speed | Heading |
|---|---|---|---|---|---|
| 2026-04-26 23:49 | 3.53708 | -76.38602 | 3164 ft | 0 kts | 251° |
| 2026-04-27 00:13 | 3.53714 | -76.38585 | 3163 ft | 4 kts | 250° |
| 2026-04-27 00:13 | 3.53724 | -76.38559 | 3165 ft | 4 kts | 249° |
| 2026-04-27 00:13 | 3.53730 | -76.38543 | 3165 ft | 0 kts | 248° |
| 2026-04-27 00:19 | 3.53725 | -76.38545 | 3166 ft | 2 kts | 198° |
| 2026-04-27 00:19 | 3.53708 | -76.38530 | 3163 ft | 7 kts | 140° |
| 2026-04-27 00:19 | 3.53675 | -76.38502 | 3162 ft | 5 kts | 140° |
| 2026-04-27 00:19 | 3.53650 | -76.38481 | 3162 ft | 4 kts | 141° |
| 2026-04-27 00:20 | 3.53631 | -76.38468 | 3162 ft | 4 kts | 147° |
| 2026-04-27 00:20 | 3.53594 | -76.38459 | 3162 ft | 7 kts | 180° |
| 2026-04-27 00:20 | 3.53543 | -76.38464 | 3162 ft | 7 kts | 187° |
| 2026-04-27 00:20 | 3.53498 | -76.38472 | 3162 ft | 8 kts | 190° |
| 2026-04-27 00:21 | 3.53421 | -76.38486 | 3162 ft | 12 kts | 191° |
| 2026-04-27 00:21 | 3.53344 | -76.38501 | 3164 ft | 10 kts | 190° |
| 2026-04-27 00:21 | 3.53255 | -76.38517 | 3162 ft | 16 kts | 190° |
| 2026-04-27 00:21 | 3.53154 | -76.38535 | 3162 ft | 14 kts | 190° |
| 2026-04-27 00:22 | 3.53067 | -76.38550 | 3162 ft | 12 kts | 189° |
| 2026-04-27 00:22 | 3.53007 | -76.38544 | 3162 ft | 6 kts | 147° |
| 2026-04-27 00:22 | 3.52996 | -76.38525 | 3162 ft | 0 kts | 101° |
| 2026-04-27 00:22 | 3.52995 | -76.38522 | 3162 ft | 2 kts | 101° |
| 2026-04-27 00:23 | 3.52990 | -76.38495 | 3162 ft | 6 kts | 101° |
| 2026-04-27 00:23 | 3.52989 | -76.38443 | 3161 ft | 9 kts | 81° |
| 2026-04-27 00:23 | 3.53022 | -76.38394 | 3160 ft | 12 kts | 25° |
| 2026-04-27 00:23 | 3.53203 | -76.38357 | 3160 ft | 53 kts | 10° |
| 2026-04-27 00:24 | 3.53799 | -76.38260 | 3164 ft | 117 kts | 10° |
| 2026-04-27 00:24 | 3.54771 | -76.38094 | 3179 ft | 166 kts | 7° |
| 2026-04-27 00:24 | 3.55924 | -76.37910 | 3793 ft | 168 kts | 7° |
| 2026-04-27 00:24 | 3.57095 | -76.37718 | 4502 ft | 172 kts | 9° |
| 2026-04-27 00:25 | 3.58315 | -76.37497 | 4845 ft | 189 kts | 10° |
| 2026-04-27 00:25 | 3.59691 | -76.37244 | 5068 ft | 211 kts | 10° |
| 2026-04-27 00:25 | 3.61227 | -76.36961 | 5334 ft | 235 kts | 10° |
| 2026-04-27 00:25 | 3.62840 | -76.36666 | 5987 ft | 242 kts | 10° |
| 2026-04-27 00:26 | 3.64512 | -76.36363 | 6754 ft | 245 kts | 10° |
| 2026-04-27 00:26 | 3.66142 | -76.35849 | 7477 ft | 250 kts | 30° |
| 2026-04-27 00:26 | 3.67462 | -76.34709 | 8220 ft | 254 kts | 54° |
| 2026-04-27 00:26 | 3.68210 | -76.33109 | 8990 ft | 258 kts | 78° |
| 2026-04-27 00:27 | 3.68239 | -76.31311 | 9773 ft | 261 kts | 103° |
| 2026-04-27 00:27 | 3.67503 | -76.29640 | 10462 ft | 264 kts | 128° |
| 2026-04-27 00:27 | 3.66124 | -76.28432 | 11145 ft | 267 kts | 153° |
| 2026-04-27 00:27 | 3.64358 | -76.27925 | 11809 ft | 269 kts | 178° |
| 2026-04-27 00:28 | 3.62511 | -76.28226 | 12485 ft | 272 kts | 204° |
| 2026-04-27 00:28 | 3.60826 | -76.29121 | 13172 ft | 275 kts | 209° |
| 2026-04-27 00:28 | 3.59141 | -76.30064 | 13859 ft | 278 kts | 209° |
| 2026-04-27 00:28 | 3.57460 | -76.31004 | 14445 ft | 281 kts | 209° |
| 2026-04-27 00:29 | 3.55745 | -76.31960 | 15057 ft | 283 kts | 209° |
| 2026-04-27 00:29 | 3.54016 | -76.32924 | 15659 ft | 285 kts | 209° |
| 2026-04-27 00:29 | 3.52269 | -76.33897 | 16273 ft | 288 kts | 209° |
| 2026-04-27 00:29 | 3.50531 | -76.34866 | 16885 ft | 290 kts | 209° |
| 2026-04-27 00:30 | 3.48757 | -76.35852 | 17491 ft | 292 kts | 209° |
| 2026-04-27 00:30 | 3.46961 | -76.36847 | 18072 ft | 295 kts | 209° |
| 2026-04-27 00:30 | 3.45154 | -76.37849 | 18614 ft | 298 kts | 209° |
| 2026-04-27 00:30 | 3.43334 | -76.38858 | 19130 ft | 300 kts | 209° |
| 2026-04-27 00:31 | 3.41506 | -76.39870 | 19651 ft | 302 kts | 209° |
| 2026-04-27 00:31 | 3.39634 | -76.40870 | 20141 ft | 307 kts | 206° |
| 2026-04-27 00:31 | 3.37654 | -76.41832 | 20262 ft | 324 kts | 205° |
| 2026-04-27 00:31 | 3.35578 | -76.42789 | 20383 ft | 341 kts | 204° |
| 2026-04-27 00:32 | 3.33364 | -76.43788 | 20507 ft | 356 kts | 204° |
| 2026-04-27 00:32 | 3.31040 | -76.44831 | 20619 ft | 371 kts | 204° |
| 2026-04-27 00:32 | 3.28636 | -76.45918 | 20756 ft | 386 kts | 204° |
| 2026-04-27 00:32 | 3.26170 | -76.47045 | 20878 ft | 399 kts | 204° |
| 2026-04-27 00:33 | 3.23621 | -76.48218 | 21130 ft | 407 kts | 204° |
| 2026-04-27 00:33 | 3.21021 | -76.49420 | 21514 ft | 411 kts | 204° |
| 2026-04-27 00:33 | 3.18416 | -76.50627 | 21874 ft | 414 kts | 204° |
| 2026-04-27 00:33 | 3.15828 | -76.51826 | 21980 ft | 418 kts | 204° |
| 2026-04-27 00:34 | 3.13159 | -76.53062 | 21997 ft | 422 kts | 205° |
| 2026-04-27 00:34 | 3.10490 | -76.54298 | 22020 ft | 422 kts | 205° |
| 2026-04-27 00:34 | 3.07820 | -76.55534 | 22015 ft | 423 kts | 204° |
| 2026-04-27 00:34 | 3.05147 | -76.56767 | 22018 ft | 423 kts | 204° |
| 2026-04-27 00:35 | 3.02463 | -76.58003 | 22022 ft | 423 kts | 204° |
| 2026-04-27 00:35 | 2.99830 | -76.59217 | 22014 ft | 423 kts | 204° |
| 2026-04-27 00:35 | 2.97160 | -76.60452 | 22020 ft | 423 kts | 205° |
| 2026-04-27 00:35 | 2.94487 | -76.61691 | 22044 ft | 422 kts | 204° |
| 2026-04-27 00:36 | 2.91818 | -76.62927 | 22033 ft | 421 kts | 204° |
| 2026-04-27 00:36 | 2.89153 | -76.64159 | 22028 ft | 421 kts | 204° |
| 2026-04-27 00:36 | 2.86516 | -76.65375 | 22026 ft | 421 kts | 204° |
| 2026-04-27 00:36 | 2.83849 | -76.66605 | 22030 ft | 421 kts | 204° |
| 2026-04-27 00:37 | 2.81185 | -76.67833 | 22045 ft | 421 kts | 204° |
| 2026-04-27 00:37 | 2.78517 | -76.69065 | 22052 ft | 421 kts | 204° |
| 2026-04-27 00:37 | 2.75861 | -76.70293 | 22059 ft | 421 kts | 204° |
| 2026-04-27 00:37 | 2.73190 | -76.71528 | 22067 ft | 421 kts | 204° |
| 2026-04-27 00:38 | 2.70568 | -76.72740 | 22068 ft | 421 kts | 204° |
| 2026-04-27 00:38 | 2.67907 | -76.73969 | 22078 ft | 421 kts | 204° |
| 2026-04-27 00:38 | 2.65239 | -76.75200 | 22097 ft | 421 kts | 204° |
| 2026-04-27 00:38 | 2.62570 | -76.76433 | 22094 ft | 421 kts | 204° |
| 2026-04-27 00:39 | 2.59901 | -76.77665 | 22097 ft | 421 kts | 204° |
| 2026-04-27 00:39 | 2.57256 | -76.78890 | 22102 ft | 421 kts | 204° |
| 2026-04-27 00:39 | 2.54589 | -76.80124 | 22098 ft | 421 kts | 204° |
| 2026-04-27 00:39 | 2.51926 | -76.81357 | 22091 ft | 422 kts | 204° |
| 2026-04-27 00:40 | 2.49262 | -76.82589 | 22093 ft | 422 kts | 204° |
| 2026-04-27 00:40 | 2.46589 | -76.83823 | 22088 ft | 422 kts | 204° |
| 2026-04-27 00:40 | 2.43919 | -76.85052 | 22085 ft | 422 kts | 204° |
| 2026-04-27 00:40 | 2.41278 | -76.86269 | 22085 ft | 422 kts | 204° |
| 2026-04-27 00:41 | 2.38614 | -76.87500 | 22075 ft | 422 kts | 204° |
| 2026-04-27 00:41 | 2.35938 | -76.88737 | 22044 ft | 422 kts | 204° |
| 2026-04-27 00:41 | 2.33275 | -76.89966 | 22047 ft | 422 kts | 204° |
| 2026-04-27 00:41 | 2.30592 | -76.91206 | 22040 ft | 422 kts | 204° |
| 2026-04-27 00:42 | 2.27964 | -76.92423 | 22044 ft | 422 kts | 204° |
| 2026-04-27 00:42 | 2.25292 | -76.93660 | 22029 ft | 421 kts | 204° |
| 2026-04-27 00:42 | 2.22666 | -76.94875 | 21761 ft | 410 kts | 204° |
| 2026-04-27 00:42 | 2.20092 | -76.96066 | 21310 ft | 404 kts | 204° |
| 2026-04-27 00:43 | 2.17563 | -76.97237 | 20832 ft | 399 kts | 204° |
| 2026-04-27 00:43 | 2.15051 | -76.98398 | 20339 ft | 396 kts | 204° |
| 2026-04-27 00:43 | 2.12552 | -76.99554 | 19853 ft | 393 kts | 204° |
| 2026-04-27 00:43 | 2.10105 | -77.00687 | 19364 ft | 390 kts | 204° |
| 2026-04-27 00:44 | 2.07645 | -77.01828 | 18866 ft | 389 kts | 205° |
| 2026-04-27 00:44 | 2.05183 | -77.02970 | 18350 ft | 388 kts | 205° |
| 2026-04-27 00:44 | 2.02737 | -77.04101 | 17777 ft | 387 kts | 205° |
| 2026-04-27 00:44 | 2.00307 | -77.05227 | 17266 ft | 384 kts | 205° |
| 2026-04-27 00:45 | 1.97884 | -77.06349 | 16749 ft | 382 kts | 205° |
| 2026-04-27 00:45 | 1.95497 | -77.07452 | 16440 ft | 368 kts | 205° |
| 2026-04-27 00:45 | 1.93271 | -77.08479 | 16299 ft | 344 kts | 205° |
| 2026-04-27 00:45 | 1.91149 | -77.09458 | 15941 ft | 331 kts | 205° |
| 2026-04-27 00:46 | 1.89077 | -77.10416 | 15649 ft | 323 kts | 205° |
| 2026-04-27 00:46 | 1.87032 | -77.11363 | 15522 ft | 324 kts | 205° |
| 2026-04-27 00:46 | 1.84952 | -77.12328 | 14977 ft | 333 kts | 205° |
| 2026-04-27 00:46 | 1.82901 | -77.13276 | 14765 ft | 321 kts | 205° |
| 2026-04-27 00:47 | 1.80925 | -77.14190 | 14562 ft | 304 kts | 205° |
| 2026-04-27 00:47 | 1.79023 | -77.15069 | 14143 ft | 298 kts | 205° |
| 2026-04-27 00:47 | 1.77197 | -77.15973 | 13769 ft | 292 kts | 207° |
| 2026-04-27 00:47 | 1.75401 | -77.16927 | 13492 ft | 290 kts | 208° |
| 2026-04-27 00:48 | 1.73628 | -77.17891 | 13226 ft | 289 kts | 208° |
| 2026-04-27 00:48 | 1.71854 | -77.18860 | 12961 ft | 288 kts | 208° |
| 2026-04-27 00:48 | 1.70117 | -77.19804 | 12691 ft | 287 kts | 208° |
| 2026-04-27 00:48 | 1.68366 | -77.20751 | 12442 ft | 285 kts | 208° |
| 2026-04-27 00:49 | 1.66622 | -77.21694 | 12178 ft | 284 kts | 208° |
| 2026-04-27 00:49 | 1.64888 | -77.22626 | 11917 ft | 283 kts | 208° |
| 2026-04-27 00:49 | 1.63152 | -77.23560 | 11659 ft | 281 kts | 208° |
| 2026-04-27 00:49 | 1.62003 | -77.24177 | 11497 ft | 280 kts | 208° |
| 2026-04-27 00:50 | 1.59717 | -77.25402 | 11057 ft | 282 kts | 208° |
| 2026-04-27 00:50 | 1.56848 | -77.26937 | 10576 ft | 279 kts | 208° |
| 2026-04-27 00:50 | 1.54580 | -77.28145 | 10234 ft | 276 kts | 208° |
| 2026-04-27 00:51 | 1.53442 | -77.28751 | 10056 ft | 274 kts | 208° |
| 2026-04-27 00:51 | 1.51752 | -77.29641 | 9804 ft | 271 kts | 207° |
| 2026-04-27 00:51 | 1.50101 | -77.30477 | 9544 ft | 267 kts | 207° |
| 2026-04-27 00:51 | 1.48448 | -77.31300 | 9331 ft | 263 kts | 207° |
| 2026-04-27 00:52 | 1.46817 | -77.32109 | 9085 ft | 257 kts | 206° |
| 2026-04-27 00:52 | 1.45259 | -77.32882 | 8860 ft | 242 kts | 206° |
| 2026-04-27 00:52 | 1.43800 | -77.33607 | 8715 ft | 230 kts | 207° |
| 2026-04-27 00:52 | 1.42384 | -77.34313 | 8687 ft | 225 kts | 207° |
| 2026-04-27 00:53 | 1.41058 | -77.34974 | 8711 ft | 202 kts | 207° |
| 2026-04-27 00:53 | 1.39880 | -77.35562 | 8837 ft | 178 kts | 207° |
| 2026-04-27 00:53 | 1.38805 | -77.36101 | 8807 ft | 168 kts | 207° |
| 2026-04-27 00:53 | 1.37729 | -77.36487 | 8639 ft | 166 kts | 189° |
| 2026-04-27 00:54 | 1.36599 | -77.36476 | 8390 ft | 163 kts | 169° |
| 2026-04-27 00:54 | 1.35542 | -77.36092 | 8165 ft | 162 kts | 149° |
| 2026-04-27 00:54 | 1.34679 | -77.35391 | 7976 ft | 160 kts | 129° |
| 2026-04-27 00:54 | 1.34109 | -77.34462 | 7752 ft | 158 kts | 110° |
| 2026-04-27 00:55 | 1.33878 | -77.33392 | 7491 ft | 157 kts | 91° |
| 2026-04-27 00:55 | 1.33989 | -77.32311 | 7160 ft | 157 kts | 73° |
| 2026-04-27 00:55 | 1.34451 | -77.31342 | 6965 ft | 154 kts | 52° |
| 2026-04-27 00:55 | 1.35148 | -77.30529 | 6726 ft | 152 kts | 41° |
| 2026-04-27 00:56 | 1.36060 | -77.30006 | 6557 ft | 151 kts | 12° |
| 2026-04-27 00:56 | 1.37063 | -77.29783 | 6388 ft | 152 kts | 17° |
| 2026-04-27 00:56 | 1.38088 | -77.29513 | 6047 ft | 154 kts | 13° |
| 2026-04-27 00:56 | 1.39235 | -77.29217 | 6361 ft | 184 kts | 15° |
| 2026-04-27 00:57 | 1.40499 | -77.28901 | 7352 ft | 185 kts | 13° |
| 2026-04-27 00:57 | 1.41803 | -77.28600 | 7518 ft | 203 kts | 13° |
| 2026-04-27 00:57 | 1.43243 | -77.28272 | 7630 ft | 227 kts | 13° |
| 2026-04-27 00:57 | 1.44846 | -77.27908 | 8015 ft | 238 kts | 13° |
| 2026-04-27 00:58 | 1.46471 | -77.27532 | 8746 ft | 241 kts | 13° |
| 2026-04-27 00:58 | 1.48111 | -77.27150 | 9519 ft | 244 kts | 13° |
| 2026-04-27 00:58 | 1.49788 | -77.26988 | 10180 ft | 248 kts | 351° |
| 2026-04-27 00:58 | 1.51479 | -77.27393 | 10678 ft | 253 kts | 340° |
| 2026-04-27 00:59 | 1.53108 | -77.28070 | 10824 ft | 253 kts | 336° |
| 2026-04-27 00:59 | 1.54717 | -77.28780 | 10858 ft | 252 kts | 336° |
| 2026-04-27 00:59 | 1.56326 | -77.29491 | 10865 ft | 252 kts | 336° |
| 2026-04-27 00:59 | 1.57930 | -77.30199 | 10824 ft | 254 kts | 336° |
| 2026-04-27 01:00 | 1.59579 | -77.30775 | 10592 ft | 251 kts | 344° |
| 2026-04-27 01:00 | 1.61271 | -77.31200 | 10339 ft | 249 kts | 347° |
| 2026-04-27 01:00 | 1.62982 | -77.31333 | 10071 ft | 247 kts | 9° |
| 2026-04-27 01:00 | 1.64573 | -77.30753 | 9868 ft | 245 kts | 34° |
| 2026-04-27 01:01 | 1.65750 | -77.29530 | 9846 ft | 246 kts | 61° |
| 2026-04-27 01:01 | 1.66260 | -77.27975 | 9838 ft | 234 kts | 86° |
| 2026-04-27 01:01 | 1.66073 | -77.26400 | 9841 ft | 226 kts | 110° |
| 2026-04-27 01:01 | 1.65281 | -77.25062 | 9840 ft | 224 kts | 134° |
| 2026-04-27 01:02 | 1.64024 | -77.24165 | 9842 ft | 223 kts | 158° |
| 2026-04-27 01:02 | 1.62513 | -77.23842 | 9869 ft | 223 kts | 181° |
| 2026-04-27 01:02 | 1.61013 | -77.24142 | 9870 ft | 223 kts | 205° |
| 2026-04-27 01:02 | 1.59669 | -77.24920 | 9874 ft | 224 kts | 212° |
| 2026-04-27 01:03 | 1.58336 | -77.25738 | 9875 ft | 224 kts | 212° |
| 2026-04-27 01:03 | 1.57006 | -77.26549 | 9874 ft | 224 kts | 211° |
| 2026-04-27 01:03 | 1.55668 | -77.27361 | 9873 ft | 224 kts | 211° |
| 2026-04-27 01:03 | 1.54333 | -77.28171 | 9871 ft | 224 kts | 211° |
| 2026-04-27 01:04 | 1.53005 | -77.28977 | 9872 ft | 224 kts | 211° |
| 2026-04-27 01:04 | 1.51633 | -77.29732 | 9753 ft | 224 kts | 207° |
| 2026-04-27 01:04 | 1.50238 | -77.30435 | 9625 ft | 224 kts | 206° |
| 2026-04-27 01:04 | 1.48857 | -77.31115 | 9530 ft | 223 kts | 207° |
| 2026-04-27 01:05 | 1.47471 | -77.31795 | 9398 ft | 217 kts | 206° |
| 2026-04-27 01:05 | 1.46130 | -77.32456 | 9133 ft | 212 kts | 207° |
| 2026-04-27 01:05 | 1.44827 | -77.33101 | 8858 ft | 207 kts | 207° |
| 2026-04-27 01:05 | 1.43553 | -77.33734 | 8675 ft | 199 kts | 207° |
| 2026-04-27 01:06 | 1.42363 | -77.34330 | 8674 ft | 181 kts | 207° |
| 2026-04-27 01:06 | 1.41272 | -77.34876 | 8685 ft | 174 kts | 207° |
| 2026-04-27 01:06 | 1.40209 | -77.35407 | 8867 ft | 168 kts | 207° |
| 2026-04-27 01:06 | 1.39172 | -77.35923 | 8844 ft | 164 kts | 207° |
| 2026-04-27 01:07 | 1.38137 | -77.36392 | 8779 ft | 165 kts | 198° |
| 2026-04-27 01:07 | 1.37012 | -77.36536 | 8505 ft | 162 kts | 176° |
| 2026-04-27 01:07 | 1.35925 | -77.36291 | 8271 ft | 161 kts | 157° |
| 2026-04-27 01:07 | 1.34982 | -77.35706 | 8084 ft | 159 kts | 137° |
| 2026-04-27 01:08 | 1.34297 | -77.34862 | 7877 ft | 158 kts | 117° |
| 2026-04-27 01:08 | 1.33938 | -77.33825 | 7605 ft | 157 kts | 97° |
| 2026-04-27 01:08 | 1.33974 | -77.32745 | 7324 ft | 154 kts | 76° |
| 2026-04-27 01:08 | 1.34334 | -77.31737 | 7124 ft | 155 kts | 62° |
| 2026-04-27 01:09 | 1.34947 | -77.30864 | 6855 ft | 154 kts | 47° |
| 2026-04-27 01:09 | 1.35752 | -77.30172 | 6624 ft | 152 kts | 32° |
| 2026-04-27 01:09 | 1.36728 | -77.29831 | 6394 ft | 151 kts | 10° |
| 2026-04-27 01:09 | 1.37748 | -77.29597 | 6204 ft | 149 kts | 17° |
| 2026-04-27 01:10 | 1.38764 | -77.29336 | 5994 ft | 152 kts | 17° |
| 2026-04-27 01:10 | 1.39704 | -77.29081 | 5904 ft | 111 kts | 14° |
| 2026-04-27 01:10 | 1.40161 | -77.28963 | 5880 ft | 24 kts | 14° |
| 2026-04-27 01:10 | 1.40321 | -77.28920 | 5864 ft | 24 kts | 15° |
| 2026-04-27 01:11 | 1.40477 | -77.28880 | 5859 ft | 22 kts | 14° |
| 2026-04-27 01:11 | 1.40585 | -77.28856 | 5853 ft | 13 kts | 353° |
| 2026-04-27 01:11 | 1.40619 | -77.28846 | 5851 ft | 3 kts | 121° |
| 2026-04-27 01:11 | 1.40563 | -77.28854 | 5865 ft | 9 kts | 196° |
| 2026-04-27 01:12 | 1.40507 | -77.28870 | 5858 ft | 11 kts | 195° |
| 2026-04-27 01:12 | 1.40412 | -77.28897 | 5864 ft | 16 kts | 195° |
| 2026-04-27 01:12 | 1.40310 | -77.28926 | 5869 ft | 14 kts | 196° |
| 2026-04-27 01:12 | 1.40232 | -77.28945 | 5869 ft | 9 kts | 192° |
| 2026-04-27 01:13 | 1.40144 | -77.28966 | 5882 ft | 20 kts | 194° |
| 2026-04-27 01:13 | 1.40015 | -77.29000 | 5885 ft | 18 kts | 195° |
| 2026-04-27 01:13 | 1.39907 | -77.29030 | 5896 ft | 14 kts | 195° |
| 2026-04-27 01:13 | 1.39834 | -77.29050 | 5894 ft | 9 kts | 193° |
| 2026-04-27 01:14 | 1.39742 | -77.29073 | 5901 ft | 16 kts | 195° |
| 2026-04-27 01:14 | 1.39677 | -77.29066 | 5903 ft | 7 kts | 124° |
| 2026-04-27 01:14 | 1.39663 | -77.29032 | 5905 ft | 2 kts | 114° |
| 2026-04-27 01:14 | 1.39641 | -77.29018 | 5907 ft | 9 kts | 165° |
| 2026-04-27 01:15 | 1.39590 | -77.29024 | 5908 ft | 3 kts | 171° |
| 2026-04-27 01:15 | 1.39583 | -77.29011 | 5908 ft | 1 kts | 110° |
| 2026-04-27 01:15 | 1.39579 | -77.28995 | 5908 ft | 3 kts | 103° |
| 2026-04-27 01:15 | 1.39576 | -77.28984 | 5908 ft | 1 kts | 103° |
| 2026-04-27 01:16 | 1.39576 | -77.28983 | 5908 ft | 0 kts | 103° |